SBEGSBBV

Guest
Details From SBEG - Eduardo Gomes
To SBBV - Boa Vista Intl
Flight Number -
Tags decoded
Created
Modified
Stats Distance 356 nm / 658 km
Max Altitude 0 ft / 0 m
Waypoints 3
Social Downloads 0
Likes 0
Share VATSIM

Download

Looking for another format? Having issues loading an existing format? Contact us
Advertisement - Login to hide

Notes

Requested: SBEG KIGUX UM402 ANBIX SBBV Unmatched points: KIGUX UM402

Route

SBEG ANBIX SBBV

ID Type Via Altitude Latitude Longitude Leg Dist Tot Dist Heading (true) Name
O SBEG APT - 0 ft / 0 m -3.03861˚ -60.04972˚ - 0 nm - Eduardo Gomes
ANBIX FIX - 0 ft / 0 m 2.18517˚ -60.62317˚ 315 nm 315 nm 354° / 354° -
O SBBV APT - 0 ft / 0 m 2.84631˚ -60.69007˚ 39 nm 355 nm 354° / 354° Boa Vista Intl

Altitude Profile

Advertisement - Login to hide

Weather


0- 5 10 15 20 25 30 35+ Temperature / ° C

Clouds and Precipitation
Forecast for 2017-12-19 00:00 UTC. Updated an hour ago

Ground ~20,000 ft ~40,000 ft Winds

SBEG

Details ICAO SBEG (MAO)
Name Eduardo Gomes
Region Brazil
Timezone America/Manaus (UTC-4.0)
Stats Elevation 264 ft / 80 m (AMSL)
Location -3.038611° -60.049723°
Runways 1
Magnetic Variation 15.762° W

METAR

SBEG 182000Z 36003KT 9999 SCT020 FEW025TCU SCT080 28/23 Q1008

Decode

TAF

TAF SBEG 181600Z 1818/1918 08008KT 9999 BKN020 FEW025TCU TN24/1906Z TX31/1918Z PROB30 TEMPO 1818/1821 5000 TSRA SCT020 FEW025CB BECMG 1822/1824 00000KT CAVOK BECMG 1910/1912 06005KT 9999 SCT010 BECMG 1915/1917 09005KT SCT020 FEW025TCU RMK PCQ

Decode

Departure Runways

ID Width Length Bearing (true) Bearing (mag) Surface Threshold Offset Overrun Length
10 148 ft / 45 m 8,867 ft / 2,703 m 90.13° 105.89° Asphalt 0 ft / 0 m 215 ft / 66 m
28 148 ft / 45 m 8,867 ft / 2,703 m 270.13° 285.89° Asphalt 0 ft / 0 m 250 ft / 76 m

SBBV

Details ICAO SBBV (BVB)
Name Boa Vista Intl
Region Brazil
Timezone America/Boa_Vista (UTC-4.0)
Stats Elevation 275 ft / 84 m (AMSL)
Location 2.846311° -60.690068°
Runways 1
Magnetic Variation 15.419° W

METAR

SBBV 182000Z 06012KT 9999 SCT040 FEW045TCU 34/20 Q1007

Decode

TAF

TAF SBBV 181600Z 1818/1918 08015KT 9999 BKN040 FEW045TCU TN26/1910Z TX35/1917Z BECMG 1822/1824 11008KT CAVOK BECMG 1907/1909 07010KT BECMG 1914/1916 10015KT SCT040 FEW045TCU RMK PCQ

Decode

Destination Runways

ID Width Length Bearing (true) Bearing (mag) Surface Threshold Offset Overrun Length
08 148 ft / 45 m 8,871 ft / 2,704 m 62.88° 78.30° Asphalt 300 ft / 91 m 0 ft / 0 m
26 148 ft / 45 m 8,871 ft / 2,704 m 242.88° 258.30° Asphalt 300 ft / 91 m 0 ft / 0 m

Approach Navaids

Runway Type Ident Frequency Range Bearing (true) Bearing (mag) Slope Elevation
08 Localiser IBV 109.30 MHz 18 nm / 33 km 62.88° 78.29° - 274 ft / 84 m (AMSL)
08 Glidescope IBV 109.30 MHz 10 nm / 19 km 62.88° 78.29° 3.00° 274 ft / 84 m (AMSL)
08 DME IBV 109.30 MHz 18 nm / 33 km - - - 274 ft / 84 m (AMSL)

Popular Alternatives